createdAt,value
2023-04-15T00:01:02.801Z,97645.52
2023-04-15T00:03:31.091Z,97643.13
2023-04-15T00:06:00.007Z,97642.75
2023-04-15T00:08:28.837Z,97644.69
2023-04-15T00:10:56.898Z,97643.64
2023-04-15T00:13:24.967Z,97643.96
2023-04-15T00:15:53.437Z,97644.91
2023-04-15T00:18:24.832Z,97644.64
2023-04-15T00:20:53.668Z,97640.91
2023-04-15T00:23:21.773Z,97635.92
2023-04-15T00:25:49.845Z,97633.23
2023-04-15T00:28:18.569Z,97629.20
2023-04-15T00:30:47.480Z,97629.04
2023-04-15T00:33:16.699Z,97627.58
2023-04-15T00:35:44.955Z,97629.30
2023-04-15T00:38:14.730Z,97631.77
2023-04-15T00:40:43.721Z,97636.45
2023-04-15T00:43:13.059Z,97635.15
2023-04-15T00:45:41.497Z,97632.05
2023-04-15T00:48:12.631Z,97632.64
2023-04-15T00:50:40.825Z,97629.55
2023-04-15T00:53:08.917Z,97630.27
2023-04-15T00:55:38.151Z,97630.92
2023-04-15T00:58:06.572Z,97633.59
2023-04-15T01:00:34.716Z,97634.74
2023-04-15T01:03:03.523Z,97635.90
2023-04-15T01:05:32.193Z,97633.08
2023-04-15T01:08:00.610Z,97632.40
2023-04-15T01:10:28.715Z,97635.19
2023-04-15T01:12:57.077Z,97636.13
2023-04-15T01:15:27.672Z,97645.29
2023-04-15T01:18:03.383Z,97646.59
2023-04-15T01:20:32.339Z,97642.93
2023-04-15T01:23:02.364Z,97640.49
2023-04-15T01:25:35.180Z,97640.54
2023-04-15T01:28:05.153Z,97642.16
2023-04-15T01:30:37.137Z,97644.92
2023-04-15T01:33:05.423Z,97648.02
2023-04-15T01:35:35.051Z,97649.95
2023-04-15T01:38:09.162Z,97653.14
2023-04-15T01:40:39.671Z,97656.01
2023-04-15T01:43:08.349Z,97656.38
2023-04-15T01:45:36.596Z,97653.52
2023-04-15T01:48:05.843Z,97655.84
2023-04-15T01:50:34.255Z,97653.07
2023-04-15T01:53:02.631Z,97653.77
2023-04-15T01:55:31.160Z,97652.30
2023-04-15T01:57:59.290Z,97649.41
2023-04-15T02:00:27.451Z,97649.45
2023-04-15T02:02:55.759Z,97646.92
2023-04-15T02:05:26.250Z,97650.56
2023-04-15T02:07:54.652Z,97651.02
2023-04-15T02:10:25.443Z,97648.31
2023-04-15T02:12:54.523Z,97647.46
2023-04-15T02:15:23.398Z,97648.73
2023-04-15T02:17:53.287Z,97650.98
2023-04-15T02:20:21.767Z,97653.44
2023-04-15T02:22:49.956Z,97651.58
2023-04-15T02:25:18.387Z,97650.50
2023-04-15T02:27:46.546Z,97647.25
2023-04-15T02:30:14.819Z,97642.84
2023-04-15T02:32:45.333Z,97646.34
2023-04-15T02:35:14.326Z,97649.44
2023-04-15T02:37:47.105Z,97650.35
2023-04-15T02:40:17.283Z,97650.14
2023-04-15T02:42:46.799Z,97648.68
2023-04-15T02:45:19.431Z,97645.63
2023-04-15T02:47:47.876Z,97648.15
2023-04-15T02:50:16.573Z,97646.23
2023-04-15T02:52:45.031Z,97649.58
2023-04-15T02:55:14.639Z,97655.05
2023-04-15T02:57:44.939Z,97656.14
2023-04-15T03:00:14.328Z,97654.88
2023-04-15T03:02:47.070Z,97651.13
2023-04-15T03:05:15.639Z,97651.81
2023-04-15T03:07:53.590Z,97649.52
2023-04-15T03:10:22.071Z,97648.50
2023-04-15T03:12:50.359Z,97655.36
2023-04-15T03:15:21.416Z,97661.15
2023-04-15T03:17:51.889Z,97667.35
2023-04-15T03:20:20.657Z,97673.92
2023-04-15T03:22:52.252Z,97680.52
2023-04-15T03:25:22.193Z,97684.24
2023-04-15T03:27:52.989Z,97690.33
2023-04-15T03:30:22.740Z,97702.09
2023-04-15T03:32:52.128Z,97720.26
2023-04-15T03:35:21.273Z,97728.13
2023-04-15T03:37:49.701Z,97729.85
2023-04-15T03:40:17.872Z,97721.36
2023-04-15T03:42:46.088Z,97721.08
2023-04-15T03:45:14.213Z,97725.61
2023-04-15T03:47:42.525Z,97732.96
2023-04-15T03:50:12.206Z,97734.02
2023-04-15T03:52:40.379Z,97732.14
2023-04-15T03:55:09.928Z,97734.68
2023-04-15T03:57:39.967Z,97736.57
2023-04-15T04:00:10.312Z,97740.65
2023-04-15T04:02:41.356Z,97743.30
2023-04-15T04:05:10.064Z,97746.94
2023-04-15T04:07:38.347Z,97751.75
2023-04-15T04:10:07.317Z,97751.70
2023-04-15T04:12:35.417Z,97753.43
2023-04-15T04:15:03.962Z,97749.55
2023-04-15T04:17:33.409Z,97757.42
2023-04-15T04:26:12.757Z,97771.50
2023-04-15T04:28:41.147Z,97776.45
2023-04-15T04:31:10.393Z,97772.56
2023-04-15T04:33:38.492Z,97770.60
2023-04-15T04:36:06.992Z,97764.62
2023-04-15T04:38:36.369Z,97760.88
2023-04-15T04:41:06.402Z,97761.58
2023-04-15T04:43:36.177Z,97771.38
2023-04-15T04:46:05.952Z,97769.97
2023-04-15T04:48:34.147Z,97768.16
2023-04-15T04:51:02.497Z,97765.86
2023-04-15T04:53:32.714Z,97768.39
2023-04-15T04:56:01.227Z,97769.31
2023-04-15T04:58:29.508Z,97767.14
2023-04-15T05:00:58.370Z,97766.17
2023-04-15T05:03:27.666Z,97765.27
2023-04-15T05:05:56.282Z,97764.44
2023-04-15T05:08:25.875Z,97756.06
2023-04-15T05:10:55.047Z,97749.20
2023-04-15T05:13:23.183Z,97749.92
2023-04-15T05:15:51.765Z,97748.19
2023-04-15T05:18:20.772Z,97740.67
2023-04-15T05:20:50.467Z,97731.91
2023-04-15T05:23:19.401Z,97729.06
2023-04-15T05:25:47.451Z,97727.54
2023-04-15T05:28:15.837Z,97731.67
2023-04-15T05:30:44.032Z,97729.76
2023-04-15T05:33:13.961Z,97731.23
2023-04-15T05:35:43.675Z,97727.83
2023-04-15T05:38:11.867Z,97724.00
2023-04-15T05:40:40.084Z,97721.96
2023-04-15T05:43:08.457Z,97727.29
2023-04-15T05:45:36.708Z,97740.58
2023-04-15T05:48:04.876Z,97747.32
2023-04-15T05:50:32.971Z,97746.30
2023-04-15T05:53:02.290Z,97749.02
2023-04-15T05:55:32.306Z,97747.90
2023-04-15T05:58:00.795Z,97752.21
2023-04-15T06:00:28.822Z,97759.18
2023-04-15T06:02:58.398Z,97763.77
2023-04-15T06:05:26.593Z,97766.13
2023-04-15T06:07:54.704Z,97767.29
2023-04-15T06:10:22.873Z,97770.56
2023-04-15T06:12:53.303Z,97775.47
2023-04-15T06:15:23.146Z,97780.04
2023-04-15T06:17:52.570Z,97772.20
2023-04-15T06:20:22.151Z,97771.23
2023-04-15T06:22:51.627Z,97764.46
2023-04-15T06:25:20.041Z,97765.39
2023-04-15T06:27:48.954Z,97766.75
2023-04-15T06:30:17.761Z,97768.76
2023-04-15T06:32:46.486Z,97773.16
2023-04-15T06:35:16.167Z,97778.52
2023-04-15T06:37:44.456Z,97786.83
2023-04-15T06:40:12.823Z,97792.81
2023-04-15T06:42:42.052Z,97795.64
2023-04-15T06:45:12.135Z,97795.32
2023-04-15T06:47:42.036Z,97790.91
2023-04-15T06:50:11.886Z,97791.36
2023-04-15T06:52:41.404Z,97791.76
2023-04-15T06:55:10.237Z,97802.00
2023-04-15T06:57:38.455Z,97811.79
2023-04-15T07:00:07.516Z,97807.66
2023-04-15T07:02:35.773Z,97806.08
2023-04-15T07:05:05.238Z,97808.11
2023-04-15T07:07:33.405Z,97814.60
2023-04-15T07:10:02.764Z,97816.67
2023-04-15T07:12:31.163Z,97816.54
2023-04-15T07:15:00.310Z,97814.56
2023-04-15T07:17:29.045Z,97808.30
2023-04-15T07:19:57.128Z,97807.30
2023-04-15T07:22:25.325Z,97813.92
2023-04-15T07:24:53.540Z,97815.86
2023-04-15T07:27:21.526Z,97815.60
2023-04-15T07:29:51.710Z,97813.40
2023-04-15T07:32:20.250Z,97814.14
2023-04-15T07:34:48.392Z,97813.02
2023-04-15T07:37:16.550Z,97810.28
2023-04-15T07:39:44.715Z,97806.20
2023-04-15T07:42:12.710Z,97807.93
2023-04-15T07:44:41.279Z,97812.55
2023-04-15T07:47:09.373Z,97813.74
2023-04-15T07:49:37.531Z,97818.48
2023-04-15T07:52:06.868Z,97826.78
2023-04-15T07:54:36.331Z,97823.48
2023-04-15T07:57:04.659Z,97822.64
2023-04-15T07:59:33.669Z,97821.66
2023-04-15T08:02:01.889Z,97818.14
2023-04-15T08:04:30.231Z,97816.52
2023-04-15T08:06:58.558Z,97817.19
2023-04-15T08:09:27.299Z,97818.02
2023-04-15T08:11:56.690Z,97820.88
2023-04-15T08:14:26.408Z,97819.47
2023-04-15T08:16:55.928Z,97825.52
2023-04-15T08:19:25.479Z,97821.88
2023-04-15T08:21:54.010Z,97819.99
2023-04-15T08:24:22.843Z,97817.94
2023-04-15T08:26:51.028Z,97823.97
2023-04-15T08:29:19.400Z,97822.98
2023-04-15T08:31:47.951Z,97820.12
2023-04-15T08:34:16.262Z,97820.02
2023-04-15T08:36:44.408Z,97819.05
2023-04-15T08:39:12.851Z,97815.48
2023-04-15T08:41:50.210Z,97810.42
2023-04-15T08:44:18.814Z,97806.79
2023-04-15T08:46:47.707Z,97808.67
2023-04-15T08:49:18.131Z,97808.89
2023-04-15T08:51:46.823Z,97812.60
2023-04-15T08:54:16.330Z,97808.35
2023-04-15T08:56:46.170Z,97801.14
2023-04-15T08:59:16.762Z,97802.09
2023-04-15T09:01:46.198Z,97804.51
2023-04-15T09:04:14.722Z,97798.48
2023-04-15T09:06:43.065Z,97803.06
2023-04-15T09:09:13.241Z,97799.31
2023-04-15T09:11:44.586Z,97800.45
2023-04-15T09:14:13.682Z,97798.88
2023-04-15T09:17:02.058Z,97796.27
2023-04-15T09:19:31.754Z,97797.09
2023-04-15T09:22:00.645Z,97796.70
2023-04-15T09:24:38.757Z,97792.64
2023-04-15T09:27:07.680Z,97786.40
2023-04-15T09:29:37.562Z,97775.91
2023-04-15T09:32:16.249Z,97779.21
2023-04-15T09:34:44.813Z,97775.98
2023-04-15T09:37:20.700Z,97769.84
2023-04-15T09:39:59.857Z,97766.93
2023-04-15T09:42:29.029Z,97771.83
2023-04-15T09:45:09.046Z,97769.54
2023-04-15T09:47:37.447Z,97774.71
2023-04-15T09:50:06.294Z,97775.81
2023-04-15T09:52:43.437Z,97775.94
2023-04-15T09:55:18.534Z,97782.04
2023-04-15T09:57:50.034Z,97787.81
2023-04-15T10:00:18.284Z,97786.46
2023-04-15T10:02:47.978Z,97780.74
2023-04-15T10:05:18.098Z,97781.93
2023-04-15T10:07:48.466Z,97786.58
2023-04-15T10:10:18.123Z,97793.27
2023-04-15T10:12:48.310Z,97796.02
2023-04-15T10:15:19.808Z,97803.42
2023-04-15T10:17:50.642Z,97815.71
2023-04-15T10:20:19.890Z,97810.20
2023-04-15T10:22:51.552Z,97819.64
2023-04-15T10:25:21.185Z,97828.01
2023-04-15T10:27:52.318Z,97816.03
2023-04-15T10:30:21.152Z,97818.20
2023-04-15T10:32:50.670Z,97809.65
2023-04-15T10:35:22.439Z,97805.35
2023-04-15T10:37:50.741Z,97802.70
2023-04-15T10:40:33.630Z,97796.81
2023-04-15T10:43:03.742Z,97798.48
2023-04-15T10:45:38.564Z,97800.40
2023-04-15T10:48:09.647Z,97787.56
2023-04-15T10:50:38.077Z,97794.58
2023-04-15T10:53:06.372Z,97795.52
2023-04-15T10:55:35.471Z,97785.84
2023-04-15T10:58:03.750Z,97783.27
2023-04-15T11:00:33.266Z,97767.83
2023-04-15T11:03:09.994Z,97768.10
2023-04-15T11:05:41.747Z,97774.67
2023-04-15T11:08:11.658Z,97773.68
2023-04-15T11:10:39.759Z,97780.58
2023-04-15T11:13:11.136Z,97778.23
2023-04-15T11:15:43.090Z,97784.45
2023-04-15T11:18:19.307Z,97783.52
2023-04-15T11:20:52.240Z,97788.52
2023-04-15T11:23:28.023Z,97778.55
2023-04-15T11:25:58.115Z,97788.63
2023-04-15T11:28:31.668Z,97797.27
2023-04-15T11:31:06.920Z,97795.21
2023-04-15T11:33:35.149Z,97790.33
2023-04-15T11:36:04.467Z,97802.70
2023-04-15T11:38:34.926Z,97802.20
2023-04-15T11:41:03.093Z,97796.18
2023-04-15T11:43:32.543Z,97797.79
2023-04-15T11:46:03.039Z,97797.74
2023-04-15T11:48:35.910Z,97796.21
2023-04-15T11:51:07.591Z,97797.70
2023-04-15T11:53:44.863Z,97798.77
2023-04-15T11:56:24.440Z,97800.44
2023-04-15T11:58:57.130Z,97809.34
2023-04-15T12:01:43.173Z,97805.70
2023-04-15T12:04:25.651Z,97805.77
2023-04-15T12:06:54.459Z,97792.38
2023-04-15T12:09:22.731Z,97794.11
2023-04-15T12:11:53.924Z,97791.13
2023-04-15T12:14:33.682Z,97788.54
2023-04-15T12:17:08.107Z,97795.73
2023-04-15T12:19:40.274Z,97795.70
2023-04-15T12:22:13.050Z,97795.98
2023-04-15T12:24:48.224Z,97803.30
2023-04-15T12:27:17.754Z,97796.73
2023-04-15T12:29:46.023Z,97794.85
2023-04-15T12:32:15.557Z,97798.48
2023-04-15T12:34:51.141Z,97789.75
2023-04-15T12:37:22.230Z,97785.02
2023-04-15T12:39:50.629Z,97794.84
2023-04-15T12:42:21.316Z,97797.61
2023-04-15T12:44:52.107Z,97800.80
2023-04-15T12:47:20.512Z,97796.72
2023-04-15T12:49:49.754Z,97798.82
2023-04-15T12:52:17.913Z,97807.58
2023-04-15T12:54:45.865Z,97796.77
2023-04-15T12:57:13.906Z,97800.42
2023-04-15T12:59:42.754Z,97800.02
2023-04-15T13:02:11.039Z,97803.96
2023-04-15T13:04:41.340Z,97790.89
2023-04-15T13:07:09.698Z,97793.08
2023-04-15T13:09:38.248Z,97793.96
2023-04-15T13:12:06.869Z,97788.25
2023-04-15T13:14:35.136Z,97784.53
2023-04-15T13:17:08.993Z,97778.60
2023-04-15T13:19:37.266Z,97786.60
2023-04-15T13:22:05.603Z,97790.39
2023-04-15T13:24:33.685Z,97786.27
2023-04-15T13:27:02.157Z,97782.05
2023-04-15T13:29:30.483Z,97783.98
2023-04-15T13:32:01.682Z,97795.49
2023-04-15T13:34:31.373Z,97793.78
2023-04-15T13:37:07.045Z,97790.48
2023-04-15T13:39:35.283Z,97785.60
2023-04-15T13:42:03.859Z,97783.65
2023-04-15T13:44:32.129Z,97774.09
2023-04-15T13:47:02.480Z,97782.99
2023-04-15T13:49:30.935Z,97785.46
2023-04-15T13:51:59.137Z,97784.97
2023-04-15T13:54:37.522Z,97784.29
2023-04-15T13:57:06.883Z,97782.20
2023-04-15T13:59:35.149Z,97787.23
2023-04-15T14:02:05.303Z,97793.52
2023-04-15T14:04:34.316Z,97793.38
2023-04-15T14:07:04.005Z,97795.25
2023-04-15T14:09:35.219Z,97797.86
2023-04-15T14:12:05.799Z,97801.09
2023-04-15T14:14:36.001Z,97802.40
2023-04-15T14:17:06.428Z,97802.11
2023-04-15T14:19:35.350Z,97806.52
2023-04-15T14:22:03.950Z,97808.11
2023-04-15T14:24:32.377Z,97807.18
2023-04-15T14:27:00.538Z,97810.59
2023-04-15T14:29:28.708Z,97811.45
2023-04-15T14:32:07.302Z,97818.39
2023-04-15T14:34:41.131Z,97812.95
2023-04-15T14:37:10.545Z,97810.27
2023-04-15T14:39:38.730Z,97813.99
2023-04-15T14:42:06.836Z,97808.96
2023-04-15T14:44:34.889Z,97810.73
2023-04-15T14:47:03.861Z,97811.17
2023-04-15T14:49:32.359Z,97804.85
2023-04-15T14:52:00.871Z,97800.77
2023-04-15T14:54:28.999Z,97801.69
2023-04-15T14:57:00.026Z,97796.95
2023-04-15T14:59:28.192Z,97799.69
2023-04-15T15:01:56.476Z,97804.01
2023-04-15T15:04:25.257Z,97807.83
2023-04-15T15:06:53.329Z,97810.41
2023-04-15T15:09:23.898Z,97812.88
2023-04-15T15:11:52.027Z,97808.58
2023-04-15T15:14:21.880Z,97805.19
2023-04-15T15:16:50.372Z,97808.43
2023-04-15T15:19:19.760Z,97801.61
2023-04-15T15:21:47.871Z,97803.05
2023-04-15T15:24:16.068Z,97801.80
2023-04-15T15:26:44.071Z,97803.38
2023-04-15T15:29:12.633Z,97809.47
2023-04-15T15:31:40.865Z,97812.14
2023-04-15T15:34:09.933Z,97818.66
2023-04-15T15:36:38.181Z,97822.41
2023-04-15T15:39:06.426Z,97823.61
2023-04-15T15:41:34.975Z,97824.02
2023-04-15T15:44:05.069Z,97825.52
2023-04-15T15:46:33.506Z,97822.04
2023-04-15T15:49:04.609Z,97819.83
2023-04-15T15:51:33.081Z,97818.17
2023-04-15T15:54:01.160Z,97825.75
2023-04-15T15:56:29.125Z,97824.30
2023-04-15T15:58:57.133Z,97822.59
2023-04-15T16:01:25.295Z,97827.25
2023-04-15T16:03:54.762Z,97830.80
2023-04-15T16:06:24.557Z,97833.31
2023-04-15T16:08:55.101Z,97831.63
2023-04-15T16:11:24.357Z,97832.00
2023-04-15T16:13:52.512Z,97834.29
2023-04-15T16:16:22.239Z,97830.41
2023-04-15T16:18:51.138Z,97836.54
2023-04-15T16:21:20.388Z,97844.23
2023-04-15T16:23:48.670Z,97847.90
2023-04-15T16:26:17.352Z,97847.60
2023-04-15T16:28:45.917Z,97852.45
2023-04-15T16:31:14.040Z,97849.37
2023-04-15T16:33:43.449Z,97848.89
2023-04-15T16:36:11.749Z,97846.02
2023-04-15T16:38:40.975Z,97852.17
2023-04-15T16:41:09.502Z,97856.38
2023-04-15T16:43:37.705Z,97855.16
2023-04-15T16:46:05.970Z,97860.77
2023-04-15T16:48:34.481Z,97863.12
2023-04-15T16:51:02.459Z,97864.59
2023-04-15T16:53:32.136Z,97867.05
2023-04-15T16:56:01.670Z,97869.62
2023-04-15T16:58:29.828Z,97867.75
2023-04-15T17:00:59.394Z,97865.50
2023-04-15T17:03:27.682Z,97863.25
2023-04-15T17:06:02.831Z,97867.86
2023-04-15T17:08:30.997Z,97878.17
2023-04-15T17:11:02.527Z,97884.60
2023-04-15T17:13:31.647Z,97886.66
2023-04-15T17:16:02.454Z,97888.55
2023-04-15T17:18:35.768Z,97890.23
2023-04-15T17:21:05.600Z,97891.68
2023-04-15T17:23:33.825Z,97895.79
2023-04-15T17:26:02.043Z,97898.86
2023-04-15T17:28:30.174Z,97900.84
2023-04-15T17:30:58.392Z,97901.58
2023-04-15T17:33:57.619Z,97902.95
2023-04-15T17:36:20.526Z,97915.18
2023-04-15T17:38:48.830Z,97920.73
2023-04-15T17:41:18.448Z,97929.44
2023-04-15T17:43:46.643Z,97930.10
2023-04-15T17:46:16.053Z,97930.89
2023-04-15T17:48:44.230Z,97934.57
2023-04-15T17:51:13.970Z,97936.75
2023-04-15T17:53:42.221Z,97938.49
2023-04-15T17:56:10.618Z,97945.64
2023-04-15T17:58:39.498Z,97947.80
2023-04-15T18:01:07.796Z,97948.46
2023-04-15T18:03:36.028Z,97956.77
2023-04-15T18:06:04.360Z,97958.50
2023-04-15T18:08:33.542Z,97960.23
2023-04-15T18:11:01.704Z,97961.38
2023-04-15T18:13:33.853Z,97960.81
2023-04-15T18:16:01.953Z,97967.52
2023-04-15T18:18:34.025Z,97972.47
2023-04-15T18:21:05.036Z,97976.02
2023-04-15T18:23:39.566Z,97983.33
2023-04-15T18:26:10.919Z,97985.61
2023-04-15T18:28:42.230Z,97985.26
2023-04-15T18:31:13.132Z,97992.02
2023-04-15T18:33:44.216Z,97990.19
2023-04-15T18:36:15.323Z,97992.40
2023-04-15T18:38:51.508Z,97989.83
2023-04-15T18:41:23.532Z,97986.94
2023-04-15T18:44:15.706Z,97989.66
2023-04-15T18:46:48.987Z,97995.15
2023-04-15T18:49:25.014Z,97998.11
2023-04-15T18:51:55.923Z,98000.85
2023-04-15T18:54:51.879Z,98000.26
2023-04-15T18:57:26.024Z,98004.05
2023-04-15T18:59:59.448Z,97999.20
2023-04-15T19:02:30.351Z,97998.00
2023-04-15T19:05:06.703Z,98000.66
2023-04-15T19:07:41.533Z,98001.16
2023-04-15T19:10:12.418Z,98007.46
2023-04-15T19:12:43.629Z,98012.31
2023-04-15T19:15:14.812Z,98017.48
2023-04-15T19:17:45.817Z,98020.63
2023-04-15T19:20:17.341Z,98017.38
2023-04-15T19:22:48.565Z,98017.15
2023-04-15T19:25:19.183Z,98023.77
2023-04-15T19:27:50.338Z,98026.21
2023-04-15T19:30:22.069Z,98023.61
2023-04-15T19:32:53.042Z,98026.23
2023-04-15T19:35:24.159Z,98025.67
2023-04-15T19:37:55.074Z,98029.77
2023-04-15T19:40:26.842Z,98036.98
2023-04-15T19:42:57.799Z,98040.39
2023-04-15T19:45:31.680Z,98044.16
2023-04-15T19:48:02.626Z,98047.70
2023-04-15T19:50:33.661Z,98049.39
2023-04-15T19:53:04.440Z,98054.23
2023-04-15T19:55:35.636Z,98050.84
2023-04-15T19:58:06.278Z,98049.63
2023-04-15T20:00:36.727Z,98051.77
2023-04-15T20:03:07.936Z,98053.95
2023-04-15T20:05:39.105Z,98052.40
2023-04-15T20:08:10.128Z,98053.54
2023-04-15T20:10:41.274Z,98055.88
2023-04-15T20:13:12.075Z,98061.92
2023-04-15T20:15:43.252Z,98064.90
2023-04-15T20:18:13.990Z,98065.42
2023-04-15T20:20:47.945Z,98071.56
2023-04-15T20:23:19.187Z,98069.85
2023-04-15T20:25:50.386Z,98067.86
2023-04-15T20:28:23.515Z,98068.55
2023-04-15T20:30:54.302Z,98064.29
2023-04-15T20:33:25.963Z,98069.51
2023-04-15T20:35:56.861Z,98069.71
2023-04-15T20:38:27.879Z,98070.98
2023-04-15T20:40:59.012Z,98072.09
2023-04-15T20:43:30.090Z,98076.17
2023-04-15T20:46:07.011Z,98075.95
2023-04-15T20:48:48.969Z,98076.23
2023-04-15T20:51:19.869Z,98077.59
2023-04-15T20:53:50.822Z,98077.57
2023-04-15T20:56:21.909Z,98077.79
2023-04-15T20:58:53.004Z,98079.05
2023-04-15T21:01:26.318Z,98077.40
2023-04-15T21:03:57.479Z,98080.34
2023-04-15T21:06:28.618Z,98080.00
2023-04-15T21:08:59.411Z,98085.79
2023-04-15T21:11:53.263Z,98082.61
2023-04-15T21:14:23.253Z,98083.45
2023-04-15T21:16:54.354Z,98084.92
2023-04-15T21:19:25.553Z,98087.89
2023-04-15T21:21:56.592Z,98086.39
2023-04-15T21:24:24.862Z,98089.55
2023-04-15T21:26:57.334Z,98087.05
2023-04-15T21:29:28.020Z,98085.31
2023-04-15T21:31:59.496Z,98084.58
2023-04-15T21:34:32.868Z,98088.40
2023-04-15T21:37:03.742Z,98087.45
2023-04-15T21:39:34.926Z,98085.75
2023-04-15T21:42:06.017Z,98083.45
2023-04-15T21:44:36.956Z,98080.14
2023-04-15T21:47:07.908Z,98079.66
2023-04-15T21:49:38.647Z,98072.67
2023-04-15T21:52:10.554Z,98079.16
2023-04-15T21:54:42.100Z,98085.16
2023-04-15T21:57:13.492Z,98086.34
2023-04-15T21:59:41.676Z,98082.98
2023-04-15T22:02:12.953Z,98086.40
2023-04-15T22:04:44.224Z,98083.91
2023-04-15T22:07:15.606Z,98087.44
2023-04-15T22:09:46.695Z,98088.87
2023-04-15T22:12:17.494Z,98088.08
2023-04-15T22:15:06.956Z,98081.79
2023-04-15T22:17:38.211Z,98086.86
2023-04-15T22:20:11.068Z,98091.85
2023-04-15T22:22:44.007Z,98093.86
2023-04-15T22:25:16.294Z,98089.73
2023-04-15T22:27:44.445Z,98087.17
2023-04-15T22:30:15.865Z,98090.42
2023-04-15T22:32:47.231Z,98089.20
2023-04-15T22:35:18.771Z,98093.38
2023-04-15T22:37:50.111Z,98094.38
2023-04-15T22:40:21.282Z,98090.27
2023-04-15T22:42:52.617Z,98085.00
2023-04-15T22:45:23.876Z,98084.61
2023-04-15T22:47:55.116Z,98081.27
2023-04-15T22:50:26.453Z,98082.48
2023-04-15T22:52:57.887Z,98078.01
2023-04-15T22:55:28.992Z,98072.20
2023-04-15T22:57:59.816Z,98072.05
2023-04-15T23:00:27.980Z,98073.63
2023-04-15T23:02:59.994Z,98073.95
2023-04-15T23:05:31.274Z,98071.33
2023-04-15T23:08:02.714Z,98078.13
2023-04-15T23:10:33.875Z,98082.30
2023-04-15T23:13:02.028Z,98083.77
2023-04-15T23:15:33.229Z,98090.98
2023-04-15T23:18:04.229Z,98093.94
2023-04-15T23:20:35.426Z,98100.23
2023-04-15T23:23:06.522Z,98102.35
2023-04-15T23:25:37.304Z,98106.29
2023-04-15T23:28:08.492Z,98106.55
2023-04-15T23:30:39.410Z,98106.42
2023-04-15T23:33:12.067Z,98113.81
2023-04-15T23:35:43.206Z,98117.08
2023-04-15T23:38:13.941Z,98114.45
2023-04-15T23:40:44.876Z,98115.70
2023-04-15T23:43:16.030Z,98110.65
2023-04-15T23:45:47.128Z,98108.71
2023-04-15T23:48:18.312Z,98108.43
2023-04-15T23:50:53.999Z,98109.59
2023-04-15T23:53:25.001Z,98105.52
2023-04-15T23:55:56.922Z,98104.61
2023-04-15T23:58:27.595Z,98100.56
